Time;durP1;ratioP1;P1;durP2;ratioP2;P2;SDS_P1;SDS_P2;PMS_P1;PMS_P2;Temp;Humidity;BMP_temperature;BMP_pressure;BME280_temperature;BME280_humidity;BME280_pressure;Samples;Min_cycle;Max_cycle;Signal;HPM_P1;HPM_P2
2022/02/06 00:01:01;;;;;;;0.63;0.10;;;;;;;11.05;100.00;98792.19;5027625;28;20426;-80
2022/02/06 00:04:05;;;;;;;0.50;0.43;;;;;;;11.04;100.00;98801.84;5031226;28;20052;-80
2022/02/06 00:07:08;;;;;;;2.08;0.25;;;;;;;11.09;100.00;98779.53;5031376;28;20060;-78
2022/02/06 00:10:12;;;;;;;1.95;0.30;;;;;;;11.14;100.00;98780.81;5031086;28;20068;-81
2022/02/06 00:13:16;;;;;;;1.05;0.17;;;;;;;11.13;100.00;98768.91;5030843;28;20060;-78
2022/02/06 00:16:20;;;;;;;0.25;0.25;;;;;;;11.19;100.00;98788.41;5030312;28;20048;-78
2022/02/06 00:19:23;;;;;;;1.23;0.50;;;;;;;11.24;100.00;98774.47;5031010;28;20478;-78
2022/02/06 00:22:53;;;;;;;0.28;0.28;;;;;;;11.24;100.00;98762.59;5031103;28;20056;-78
2022/02/06 00:26:09;;;;;;;0.10;0.10;;;;;;;11.17;100.00;98763.09;5031178;28;20055;-80
2022/02/06 00:29:52;;;;;;;0.20;0.20;;;;;;;11.23;100.00;98763.84;5030880;28;20395;-79
2022/02/06 00:32:48;;;;;;;0.10;0.10;;;;;;;11.19;100.00;98749.41;5030757;28;20056;-80
2022/02/06 00:36:02;;;;;;;0.22;0.22;;;;;;;11.14;100.00;98747.38;5029642;28;20052;-80
2022/02/06 00:39:06;;;;;;;0.38;0.32;;;;;;;11.06;100.00;98736.00;5031005;28;20399;-80
2022/02/06 00:42:10;;;;;;;0.55;0.55;;;;;;;11.05;100.00;98722.53;5030933;28;20407;-80
2022/02/06 00:45:14;;;;;;;1.17;0.30;;;;;;;11.12;100.00;98742.31;5030867;28;20076;-80
2022/02/06 00:48:24;;;;;;;11.50;0.30;;;;;;;11.10;100.00;98736.50;5029991;28;20061;-80
2022/02/06 00:51:36;;;;;;;0.17;0.17;;;;;;;11.08;100.00;98727.13;5030641;28;20056;-82
2022/02/06 00:54:40;;;;;;;0.10;0.00;;;;;;;11.04;100.00;98724.59;5030563;28;20056;-80
2022/02/06 00:57:43;;;;;;;0.10;0.10;;;;;;;11.03;100.00;98734.19;5031153;28;20051;-80
2022/02/06 01:00:48;;;;;;;0.55;0.35;;;;;;;10.97;100.00;98733.44;5029732;28;20422;-80
2022/02/06 01:03:53;;;;;;;11.10;0.45;;;;;;;10.97;100.00;98733.44;5029918;28;20052;-80
2022/02/06 01:06:57;;;;;;;0.30;0.30;;;;;;;10.94;100.00;98733.69;5029562;28;20048;-79
2022/02/06 01:10:00;;;;;;;0.40;0.40;;;;;;;10.93;100.00;98721.03;5030504;28;20052;-80
2022/02/06 01:14:14;;;;;;;2.10;0.45;;;;;;;10.85;100.00;98711.66;5030802;28;20072;-80
2022/02/06 01:16:45;;;;;;;1.30;0.20;;;;;;;10.92;100.00;98702.78;5030660;28;20647;-80
2022/02/06 01:20:03;;;;;;;3.05;0.55;;;;;;;10.91;100.00;98695.72;5029847;28;20048;-83
2022/02/06 01:23:21;;;;;;;0.20;0.20;;;;;;;10.86;100.00;98700.00;5032248;28;20053;-79
2022/02/06 01:26:38;;;;;;;0.63;0.63;;;;;;;10.90;100.00;98689.38;5034393;28;20060;-80
2022/02/06 01:32:59;;;;;;;3.30;0.47;;;;;;;10.89;100.00;98678.75;5033687;28;20057;-79
2022/02/06 01:39:46;;;;;;;0.22;0.22;;;;;;;10.93;100.00;98662.53;5034164;28;20056;-83
2022/02/06 01:42:59;;;;;;;0.10;0.10;;;;;;;10.89;100.00;98664.81;5033206;28;20060;-81
2022/02/06 02:06:19;;;;;;;3.45;1.23;;;;;;;11.01;100.00;98630.88;5033151;28;20506;-81
2022/02/06 02:45:48;;;;;;;0.10;0.10;;;;;;;11.31;100.00;98522.38;5013285;28;20057;-82
2022/02/06 02:48:46;;;;;;;1.30;0.47;;;;;;;11.29;100.00;98508.19;5012712;28;20514;-82
2022/02/06 02:51:56;;;;;;;0.52;0.30;;;;;;;11.26;100.00;98498.09;5011926;28;20344;-83
2022/02/06 02:55:55;;;;;;;0.10;0.10;;;;;;;11.30;100.00;98490.22;5013187;28;20499;-82
2022/02/06 03:01:51;;;;;;;0.20;0.20;;;;;;;11.33;100.00;98475.25;5012741;28;20507;-81
2022/02/06 03:04:57;;;;;;;2.67;1.23;;;;;;;11.41;100.00;98476.22;5012067;28;20251;-82
2022/02/06 03:08:04;;;;;;;5.50;0.45;;;;;;;11.42;100.00;98461.00;5012186;28;20056;-82
2022/02/06 03:11:09;;;;;;;6.03;0.70;;;;;;;11.38;100.00;98449.38;5029484;28;20064;-82
2022/02/06 03:14:26;;;;;;;3.13;0.55;;;;;;;11.34;100.00;98437.75;5031436;28;20380;-82
2022/02/06 03:17:36;;;;;;;0.40;0.40;;;;;;;11.37;100.00;98437.47;5031681;28;20056;-83
2022/02/06 03:20:39;;;;;;;0.35;0.30;;;;;;;11.42;100.00;98424.78;5031463;28;20399;-83
2022/02/06 03:23:48;;;;;;;0.30;0.20;;;;;;;11.40;100.00;98418.97;5032352;28;20056;-82
2022/02/06 03:26:55;;;;;;;0.10;0.10;;;;;;;11.38;100.00;98415.94;5031549;28;20053;-82
2022/02/06 03:29:58;;;;;;;0.98;0.15;;;;;;;11.43;100.00;98409.56;5032029;28;20053;-82
2022/02/06 03:33:01;;;;;;;0.20;0.10;;;;;;;11.39;100.00;98403.53;5031065;28;20078;-82
2022/02/06 03:36:05;;;;;;;0.10;0.10;;;;;;;11.42;100.00;98391.31;5031843;28;20068;-81
2022/02/06 03:39:09;;;;;;;1.02;0.60;;;;;;;11.45;100.00;98395.88;5031641;28;20052;-82
2022/02/06 03:42:16;;;;;;;7.57;0.38;;;;;;;11.53;100.00;98370.97;5031122;28;20056;-81
2022/02/06 03:45:21;;;;;;;0.30;0.30;;;;;;;11.50;100.00;98364.41;5031157;28;20124;-82
2022/02/06 03:48:40;;;;;;;1.40;0.40;;;;;;;11.51;100.00;98351.97;5031657;28;20056;-81
2022/02/06 03:51:44;;;;;;;1.45;0.38;;;;;;;11.41;100.00;98345.22;5030704;28;20064;-82
2022/02/06 03:54:47;;;;;;;0.10;0.10;;;;;;;11.38;100.00;98338.66;5031096;28;20052;-82
2022/02/06 03:57:51;;;;;;;0.17;0.15;;;;;;;11.44;100.00;98330.22;5031081;28;20052;-83
2022/02/06 04:00:55;;;;;;;0.30;0.30;;;;;;;11.43;100.00;98312.00;5030923;28;20053;-83
2022/02/06 04:03:58;;;;;;;0.35;0.35;;;;;;;11.48;100.00;98319.56;5030706;28;20052;-82
2022/02/06 04:07:08;;;;;;;0.30;0.30;;;;;;;11.44;100.00;98308.69;5031403;28;20048;-81
2022/02/06 04:10:13;;;;;;;4.78;0.47;;;;;;;11.38;100.00;98296.84;5031236;28;20044;-81
2022/02/06 04:13:23;;;;;;;3.70;0.20;;;;;;;11.34;100.00;98290.78;5030981;28;20056;-81
2022/02/06 04:16:38;;;;;;;0.20;0.20;;;;;;;11.27;100.00;98276.66;5030080;28;20056;-81
2022/02/06 04:19:42;;;;;;;0.65;0.65;;;;;;;11.33;100.00;98275.34;5030583;28;20068;-81
2022/02/06 04:22:45;;;;;;;0.10;0.00;;;;;;;11.27;100.00;98276.66;5030572;28;20068;-81
2022/02/06 04:25:49;;;;;;;6.70;0.73;;;;;;;11.32;100.00;98278.66;5031490;28;20411;-80
2022/02/06 04:28:52;;;;;;;2.13;0.35;;;;;;;11.33;100.00;98263.44;5031554;28;20044;-79
2022/02/06 04:31:55;;;;;;;0.90;0.40;;;;;;;11.36;100.00;98248.47;5031202;28;20499;-80
2022/02/06 04:34:58;;;;;;;0.30;0.30;;;;;;;11.40;100.00;98254.50;5029992;28;20048;-80
2022/02/06 04:41:42;;;;;;;1.17;0.25;;;;;;;11.40;100.00;98235.00;5030966;28;20053;-81
2022/02/06 05:31:28;;;;;;;0.10;0.10;;;;;;;10.76;100.00;98256.00;5034356;28;20410;-82
2022/02/06 05:34:32;;;;;;;0.10;0.10;;;;;;;10.77;100.00;98251.94;5034069;28;20520;-82
2022/02/06 05:37:35;;;;;;;0.10;0.10;;;;;;;10.76;100.00;98250.44;5033106;28;20052;-82
2022/02/06 05:40:39;;;;;;;0.10;0.10;;;;;;;10.70;100.00;98257.31;5056478;28;20056;-82
2022/02/06 05:43:43;;;;;;;0.10;0.00;;;;;;;10.68;100.00;98257.81;5033022;28;20103;-81
2022/02/06 05:46:46;;;;;;;0.10;0.00;;;;;;;10.69;100.00;98256.53;5032755;28;20052;-81
2022/02/06 05:49:50;;;;;;;0.10;0.10;;;;;;;10.70;100.00;98257.31;5032861;28;20056;-81
2022/02/06 05:52:54;;;;;;;0.10;0.00;;;;;;;10.68;100.00;98252.22;5034039;28;20060;-81
2022/02/06 05:55:59;;;;;;;0.10;0.00;;;;;;;10.75;100.00;98254.47;5033102;28;20060;-82
2022/02/06 05:59:03;;;;;;;0.10;0.10;;;;;;;10.78;100.00;98263.84;5033022;28;20056;-82
2022/02/06 06:02:07;;;;;;;0.10;0.00;;;;;;;10.78;100.00;98270.16;5033082;28;20541;-82
2022/02/06 06:05:10;;;;;;;0.10;0.10;;;;;;;10.74;100.00;98275.25;5033771;28;20494;-81
2022/02/06 06:08:14;;;;;;;6.72;0.52;;;;;;;10.71;100.00;98275.50;5032709;28;20052;-82
2022/02/06 06:11:18;;;;;;;1.33;0.52;;;;;;;10.54;100.00;98273.59;5032270;28;20514;-82
2022/02/06 06:14:27;;;;;;;0.10;0.03;;;;;;;10.28;100.00;98278.75;5032508;28;20661;-81
2022/02/06 06:17:31;;;;;;;0.10;0.10;;;;;;;10.12;100.00;98285.13;5032517;28;20053;-82
2022/02/06 06:20:36;;;;;;;0.10;0.10;;;;;;;10.14;100.00;98296.50;5032022;28;20068;-81
2022/02/06 06:23:43;;;;;;;6.28;0.40;;;;;;;10.10;100.00;98295.97;5032746;28;20049;-84
2022/02/06 06:26:47;;;;;;;0.10;0.10;;;;;;;9.96;100.00;98297.03;5032729;28;20053;-82
2022/02/06 06:29:50;;;;;;;0.13;0.13;;;;;;;9.92;100.00;98318.75;5032482;28;20056;-83
2022/02/06 06:32:54;;;;;;;0.10;0.00;;;;;;;9.81;100.00;98324.38;5032521;28;20061;-84
2022/02/06 06:35:57;;;;;;;0.22;0.22;;;;;;;9.89;100.00;98308.66;5032352;28;20052;-83
2022/02/06 06:39:03;;;;;;;0.10;0.10;;;;;;;9.86;100.00;98323.56;5033035;28;20063;-83
2022/02/06 06:42:07;;;;;;;0.10;0.10;;;;;;;9.80;100.00;98314.50;5032386;28;20072;-82
2022/02/06 06:45:10;;;;;;;0.10;0.10;;;;;;;9.80;100.00;98317.28;5032366;28;20511;-83
2022/02/06 06:48:14;;;;;;;0.10;0.08;;;;;;;9.65;100.00;98323.09;5033341;28;20068;-82
2022/02/06 06:51:17;;;;;;;0.20;0.20;;;;;;;9.73;100.00;98315.00;5032861;28;20052;-83
2022/02/06 06:54:22;;;;;;;0.10;0.10;;;;;;;9.65;100.00;98314.00;5031974;28;20447;-82
2022/02/06 06:57:31;;;;;;;0.10;0.10;;;;;;;9.60;100.00;98320.31;5032068;28;20049;-83
2022/02/06 07:00:43;;;;;;;0.10;0.10;;;;;;;9.54;100.00;98327.91;5031633;28;20056;-81
2022/02/06 07:03:46;;;;;;;;;;;;;;;9.43;100.00;98322.34;5032124;28;20056;-82
2022/02/06 07:06:49;;;;;;;0.10;0.10;;;;;;;9.34;100.00;98325.38;5031544;28;19917;-82
2022/02/06 07:09:54;;;;;;;0.10;0.10;;;;;;;9.29;100.00;98317.81;5032079;28;20053;-82
2022/02/06 07:12:57;;;;;;;0.38;0.15;;;;;;;9.28;100.00;98321.81;5032246;28;20060;-82
2022/02/06 07:16:00;;;;;;;0.10;0.10;;;;;;;9.21;100.00;98327.88;5031976;28;20056;-81
2022/02/06 07:19:04;;;;;;;0.10;0.10;;;;;;;9.21;100.00;98336.22;5031576;28;20407;-82
2022/02/06 07:22:12;;;;;;;0.25;0.20;;;;;;;9.18;100.00;98345.56;5031303;28;20060;-83
2022/02/06 07:25:15;;;;;;;1.65;0.20;;;;;;;9.15;100.00;98336.22;5031844;28;20589;-82
2022/02/06 07:28:20;;;;;;;0.10;0.10;;;;;;;9.10;100.00;98329.38;5031676;28;20060;-82
2022/02/06 07:31:23;;;;;;;0.10;0.10;;;;;;;9.08;100.00;98326.34;5030662;28;20048;-82
2022/02/06 07:34:26;;;;;;;0.10;0.10;;;;;;;9.09;100.00;98327.88;5031433;28;20411;-82
2022/02/06 07:37:30;;;;;;;0.13;0.13;;;;;;;9.09;100.00;98327.13;5031312;28;20072;-80
2022/02/06 07:40:34;;;;;;;2.00;0.85;;;;;;;9.11;100.00;98330.16;5031307;28;20044;-82
2022/02/06 07:43:38;;;;;;;0.17;0.17;;;;;;;9.10;100.00;98323.06;5031411;28;20049;-83
2022/02/06 07:46:45;;;;;;;0.10;0.10;;;;;;;9.14;100.00;98318.78;5031521;28;20517;-80
2022/02/06 07:49:51;;;;;;;0.10;0.10;;;;;;;9.18;100.00;98319.28;5031150;28;20056;-83
2022/02/06 07:52:55;;;;;;;8.77;0.35;;;;;;;9.21;100.00;98327.88;5031348;28;20068;-84
2022/02/06 07:55:58;;;;;;;0.10;0.10;;;;;;;9.25;100.00;98339.50;5030901;28;20503;-83
2022/02/06 07:59:02;;;;;;;0.10;0.10;;;;;;;9.29;100.00;98334.47;5030911;28;20056;-83
2022/02/06 08:02:06;;;;;;;2.47;1.38;;;;;;;9.26;100.00;98347.34;5031019;28;20048;-81
2022/02/06 08:05:10;;;;;;;0.10;0.10;;;;;;;9.26;100.00;98346.56;5030431;28;20057;-82
2022/02/06 08:08:15;;;;;;;0.10;0.10;;;;;;;9.25;100.00;98345.81;5030854;28;20048;-81
2022/02/06 08:11:18;;;;;;;1.10;0.95;;;;;;;9.29;100.00;98360.19;5030485;28;20056;-82
2022/02/06 08:17:43;;;;;;;0.10;0.10;;;;;;;9.19;100.00;98372.81;5031060;28;20060;-80
2022/02/06 08:20:46;;;;;;;0.10;0.10;;;;;;;9.13;100.00;98380.38;5030019;28;20414;-81
2022/02/06 08:23:50;;;;;;;0.10;0.10;;;;;;;9.16;100.00;98387.69;5031150;28;20060;-81
2022/02/06 08:26:53;;;;;;;0.20;0.20;;;;;;;9.14;100.00;98357.66;5031379;28;20060;-81
2022/02/06 08:29:58;;;;;;;0.65;0.10;;;;;;;9.14;100.00;98362.44;5030269;28;20085;-81
2022/02/06 08:33:01;;;;;;;0.38;0.38;;;;;;;9.11;100.00;98375.34;5031693;28;20052;-80
2022/02/06 08:36:05;;;;;;;2.42;0.40;;;;;;;9.09;100.00;98386.19;5033902;28;20064;-81
2022/02/06 08:39:09;;;;;;;1.40;0.30;;;;;;;9.09;100.00;98388.97;5035014;28;20052;-81
2022/02/06 08:42:13;;;;;;;0.10;0.10;;;;;;;9.09;100.00;98383.41;5034413;28;20057;-82
2022/02/06 08:45:20;;;;;;;1.17;0.30;;;;;;;9.07;100.00;98377.59;5035170;28;20061;-82
2022/02/06 08:48:24;;;;;;;0.52;0.20;;;;;;;9.09;100.00;98383.41;5034113;28;20411;-81
2022/02/06 08:51:28;;;;;;;0.45;0.40;;;;;;;9.08;100.00;98386.69;5014617;28;20599;-82
2022/02/06 08:54:34;;;;;;;1.17;0.45;;;;;;;9.11;100.00;98407.91;5014354;28;20053;-81
2022/02/06 08:57:43;;;;;;;0.10;0.10;;;;;;;9.21;100.00;98416.75;5014259;28;20053;-81
2022/02/06 09:00:47;;;;;;;0.10;0.10;;;;;;;9.27;100.00;98437.00;5035180;28;20048;-81
2022/02/06 09:03:50;;;;;;;4.65;0.43;;;;;;;9.35;100.00;98426.91;5033694;28;20395;-82
2022/02/06 09:06:57;;;;;;;0.40;0.17;;;;;;;9.40;100.00;98440.78;5045177;28;20076;-81
2022/02/06 09:10:02;;;;;;;15.63;1.00;;;;;;;9.44;100.00;98446.13;5034474;28;20052;-81
2022/02/06 09:13:07;;;;;;;1.08;0.60;;;;;;;9.39;100.00;98435.75;5033588;28;20541;-81
2022/02/06 09:16:10;;;;;;;2.47;0.22;;;;;;;9.41;100.00;98438.78;5033763;28;20048;-87
2022/02/06 09:19:14;;;;;;;0.13;0.13;;;;;;;9.42;100.00;98441.03;5033390;28;20533;-82
2022/02/06 09:22:17;;;;;;;0.30;0.28;;;;;;;9.42;100.00;98440.31;5034374;28;20518;-81
2022/02/06 09:25:21;;;;;;;0.10;0.10;;;;;;;9.48;100.00;98429.97;5033597;28;20048;-81
2022/02/06 09:28:24;;;;;;;2.70;1.05;;;;;;;9.48;100.00;98446.63;5033342;28;20057;-81
2022/02/06 09:31:27;;;;;;;0.10;0.10;;;;;;;9.42;100.00;98454.19;5013374;28;20057;-81
2022/02/06 09:37:35;;;;;;;0.20;0.13;;;;;;;9.44;100.00;98435.00;5013874;28;20057;-80
2022/02/06 09:40:43;;;;;;;1.23;0.43;;;;;;;9.63;100.00;98430.50;5026999;28;20053;-81
2022/02/06 09:43:47;;;;;;;0.13;0.13;;;;;;;9.95;100.00;98437.31;5033770;28;20522;-81
2022/02/06 09:46:52;;;;;;;8.40;0.43;;;;;;;10.04;100.00;98437.09;5032983;28;20048;-81
2022/02/06 09:49:56;;;;;;;2.50;0.40;;;;;;;10.09;100.00;98425.16;5033965;28;20060;-81
2022/02/06 09:52:59;;;;;;;0.20;0.20;;;;;;;10.12;100.00;98413.06;5034074;28;20048;-84
2022/02/06 09:56:08;;;;;;;2.60;0.77;;;;;;;10.03;100.00;98407.75;5032865;28;20060;-82
2022/02/06 09:59:20;;;;;;;1.65;1.08;;;;;;;10.06;100.00;98437.34;5032377;28;20064;-81
2022/02/06 10:02:33;;;;;;;0.95;0.15;;;;;;;10.24;100.00;98431.28;5032594;28;20533;-81
2022/02/06 10:05:39;;;;;;;1.00;0.57;;;;;;;10.32;100.00;98423.94;5032641;28;20167;-81
2022/02/06 10:08:44;;;;;;;0.98;0.20;;;;;;;10.35;100.00;98428.47;5032199;28;20056;-81
2022/02/06 10:11:52;;;;;;;0.40;0.40;;;;;;;10.29;100.00;98436.06;5031877;28;20061;-80
2022/02/06 10:14:55;;;;;;;2.53;1.13;;;;;;;10.26;100.00;98455.81;5055999;28;20056;-81
2022/02/06 10:18:00;;;;;;;0.28;0.10;;;;;;;10.21;100.00;98451.00;5032787;28;20060;-81
2022/02/06 10:21:05;;;;;;;10.70;1.13;;;;;;;10.14;100.00;98460.63;5043532;28;20143;-80
2022/02/06 10:24:19;;;;;;;0.90;0.40;;;;;;;10.01;100.00;98449.19;5032217;28;20082;-81
2022/02/06 10:27:58;;;;;;;0.30;0.10;;;;;;;9.95;100.00;98459.56;5012450;28;20057;-79
2022/02/06 10:31:04;;;;;;;0.10;0.10;;;;;;;9.88;100.00;98460.84;5030498;28;20068;-80
2022/02/06 10:34:23;;;;;;;8.40;0.50;;;;;;;9.84;100.00;98456.78;5033045;28;20052;-81
2022/02/06 10:37:29;;;;;;;0.50;0.35;;;;;;;9.77;100.00;98451.72;5033216;28;20495;-81
2022/02/06 10:40:33;;;;;;;9.35;0.82;;;;;;;9.73;100.00;98445.66;5032442;28;20052;-80
2022/02/06 10:43:38;;;;;;;0.22;0.22;;;;;;;9.63;100.00;98452.72;5037464;28;20052;-81
2022/02/06 10:46:46;;;;;;;19.90;1.38;;;;;;;9.60;100.00;98462.81;5034372;28;20060;-81
2022/02/06 10:50:11;;;;;;;0.40;0.40;;;;;;;9.56;100.00;98464.31;5031921;28;20056;-80
2022/02/06 10:53:17;;;;;;;0.90;0.28;;;;;;;9.39;100.00;98455.19;5031568;28;20060;-81
2022/02/06 10:56:20;;;;;;;13.25;1.23;;;;;;;9.49;100.00;98456.47;5031862;28;20060;-81
2022/02/06 10:59:24;;;;;;;2.22;0.47;;;;;;;9.55;100.00;98462.81;5031979;28;20057;-80
2022/02/06 11:02:57;;;;;;;0.10;0.10;;;;;;;9.69;100.00;98478.50;5031926;28;20053;-80
2022/02/06 11:06:08;;;;;;;2.00;0.60;;;;;;;9.81;100.00;98480.06;5031518;28;20506;-80
2022/02/06 11:09:27;;;;;;;2.28;1.00;;;;;;;9.80;100.00;98473.72;5031440;28;20057;-80
2022/02/06 11:12:31;;;;;;;15.43;2.67;;;;;;;9.94;100.00;98466.38;5031977;28;20056;-80
2022/02/06 11:15:39;;;;;;;2.33;0.45;;;;;;;10.10;100.00;98468.44;5032415;28;20533;-80
2022/02/06 11:18:50;;;;;;;1.20;0.60;;;;;;;10.07;100.00;98452.00;5031318;28;20060;-82
2022/02/06 11:22:08;;;;;;;0.20;0.20;;;;;;;10.05;100.00;98446.94;5011825;28;20056;-81
2022/02/06 11:25:11;;;;;;;12.82;1.27;;;;;;;10.00;100.00;98447.69;5017066;28;20501;-82
2022/02/06 11:28:16;;;;;;;0.47;0.47;;;;;;;10.14;100.00;98446.72;5031450;28;20060;-80
2022/02/06 11:31:21;;;;;;;0.57;0.20;;;;;;;10.23;100.00;98432.53;5032042;28;20431;-79
2022/02/06 11:34:25;;;;;;;0.20;0.20;;;;;;;10.18;100.00;98433.28;5029983;28;20422;-80
2022/02/06 11:45:10;;;;;;;0.40;0.40;;;;;;;10.43;100.00;98446.19;5010604;28;20053;-82
2022/02/06 11:48:18;;;;;;;0.17;0.17;;;;;;;10.56;100.00;98435.28;5031819;28;20055;-81
2022/02/06 11:51:22;;;;;;;0.38;0.38;;;;;;;10.50;100.00;98447.69;5030675;28;20052;-81
2022/02/06 11:54:34;;;;;;;0.20;0.20;;;;;;;10.49;100.00;98441.34;5030627;28;20454;-79
2022/02/06 11:57:38;;;;;;;2.30;0.95;;;;;;;10.40;100.00;98429.72;5030642;28;20403;-80
2022/02/06 12:00:41;;;;;;;0.40;0.20;;;;;;;10.25;100.00;98441.13;5029921;28;20052;-80
2022/02/06 12:03:52;;;;;;;0.63;0.60;;;;;;;10.15;100.00;98453.78;5030297;28;20052;-80
2022/02/06 12:06:57;;;;;;;1.23;0.40;;;;;;;10.17;100.00;98419.91;5029680;28;20061;-80
2022/02/06 12:10:01;;;;;;;3.42;0.40;;;;;;;10.09;100.00;98443.91;5029886;28;20645;-82
2022/02/06 12:13:17;;;;;;;0.20;0.20;;;;;;;10.14;100.00;98441.13;5030903;28;20052;-84
2022/02/06 12:16:26;;;;;;;11.68;1.35;;;;;;;10.06;100.00;98434.56;5030029;28;20053;-83
2022/02/06 12:19:31;;;;;;;2.70;0.20;;;;;;;10.18;100.00;98438.13;5030618;28;20052;-80
2022/02/06 12:22:38;;;;;;;0.57;0.55;;;;;;;10.30;100.00;98442.41;5028021;28;20491;-78
2022/02/06 12:25:42;;;;;;;1.83;0.90;;;;;;;10.27;100.00;98438.59;5028139;28;20060;-77
2022/02/06 12:28:49;;;;;;;1.67;0.65;;;;;;;10.24;100.00;98422.94;5031127;28;20529;-79
2022/02/06 12:32:03;;;;;;;0.50;0.50;;;;;;;10.14;100.00;98430.00;5031135;28;20053;-79
2022/02/06 12:38:30;;;;;;;0.20;0.20;;;;;;;10.21;100.00;98418.38;5030842;28;20060;-79
2022/02/06 12:41:33;;;;;;;0.10;0.10;;;;;;;10.29;100.00;98402.69;5029928;28;20074;-78
2022/02/06 12:44:37;;;;;;;0.60;0.52;;;;;;;10.20;100.00;98416.84;5031244;28;20052;-78
2022/02/06 12:47:46;;;;;;;0.43;0.43;;;;;;;10.22;100.00;98413.59;5030937;28;20048;-79
2022/02/06 12:50:50;;;;;;;0.75;0.38;;;;;;;10.09;100.00;98411.25;5030675;28;20053;-79
2022/02/06 12:54:14;;;;;;;0.55;0.40;;;;;;;10.17;100.00;98411.56;5030659;28;20499;-80
2022/02/06 12:57:20;;;;;;;0.43;0.43;;;;;;;10.21;100.00;98423.19;5030990;28;20497;-79
2022/02/06 13:00:44;;;;;;;1.38;0.60;;;;;;;10.17;100.00;98429.00;5030825;28;20052;-79
2022/02/06 13:03:48;;;;;;;0.30;0.30;;;;;;;10.18;100.00;98424.94;5029552;28;20061;-79
2022/02/06 13:06:52;;;;;;;0.20;0.13;;;;;;;10.17;100.00;98440.13;5030277;28;20053;-79
2022/02/06 13:10:02;;;;;;;3.22;0.60;;;;;;;10.16;100.00;98416.34;5029760;28;20061;-80
2022/02/06 13:13:07;;;;;;;4.68;0.40;;;;;;;10.06;100.00;98419.88;5029800;28;20072;-79
2022/02/06 13:16:52;;;;;;;1.33;0.30;;;;;;;10.02;100.00;98428.50;5030388;28;20056;-79
2022/02/06 13:20:06;;;;;;;0.10;0.10;;;;;;;9.84;100.00;98428.97;5033032;28;20048;-79
2022/02/06 13:33:17;;;;;;;5.72;0.50;;;;;;;10.08;100.00;98409.00;5034785;28;20048;-79
2022/02/06 13:39:38;;;;;;;9.35;0.35;;;;;;;10.25;100.00;98435.56;5034659;28;20056;-79
2022/02/06 13:43:00;;;;;;;6.07;1.08;;;;;;;10.03;100.00;98435.56;5033480;28;20053;-79
2022/02/06 13:46:12;;;;;;;0.30;0.30;;;;;;;10.08;100.00;98443.16;5033249;28;20159;-79
2022/02/06 13:49:16;;;;;;;1.05;0.50;;;;;;;10.01;100.00;98449.19;5032907;28;20064;-79
2022/02/06 13:52:20;;;;;;;0.57;0.43;;;;;;;10.15;100.00;98434.31;5032775;28;20057;-79
2022/02/06 13:55:23;;;;;;;18.20;2.15;;;;;;;10.30;100.00;98437.59;5033851;28;20061;-79
2022/02/06 13:58:29;;;;;;;0.28;0.28;;;;;;;10.41;100.00;98437.59;5033621;28;20057;-80
2022/02/06 14:01:45;;;;;;;1.02;0.57;;;;;;;10.35;100.00;98442.38;5033628;28;20056;-80
2022/02/06 14:04:51;;;;;;;0.85;0.35;;;;;;;10.25;100.00;98432.78;5032517;28;20057;-80
2022/02/06 14:08:02;;;;;;;0.45;0.45;;;;;;;10.27;100.00;98448.97;5032885;28;20103;-80
2022/02/06 14:11:15;;;;;;;4.38;1.02;;;;;;;10.41;100.00;98445.94;5032414;28;20053;-79
2022/02/06 14:14:26;;;;;;;1.70;0.80;;;;;;;10.40;100.00;98475.00;5032853;28;20068;-79
2022/02/06 14:17:33;;;;;;;0.50;0.28;;;;;;;10.42;100.00;98472.47;5032612;28;20052;-79
2022/02/06 14:20:37;;;;;;;6.03;0.93;;;;;;;10.29;100.00;98452.00;5032401;28;20503;-79
2022/02/06 14:23:40;;;;;;;4.30;0.52;;;;;;;10.08;100.00;98465.41;5031475;28;20052;-79
2022/02/06 14:27:04;;;;;;;3.00;0.47;;;;;;;10.07;100.00;98486.13;5031535;28;20053;-80
2022/02/06 14:30:19;;;;;;;9.77;0.65;;;;;;;10.10;100.00;98467.66;5041631;28;20415;-80
2022/02/06 14:33:25;;;;;;;3.67;0.60;;;;;;;10.12;100.00;98471.50;5032439;28;20049;-81
2022/02/06 14:36:28;;;;;;;0.20;0.20;;;;;;;10.28;100.00;98434.56;5032499;28;20529;-80
2022/02/06 14:39:35;;;;;;;0.75;0.75;;;;;;;10.26;100.00;98461.38;5032619;28;20072;-80
2022/02/06 14:42:53;;;;;;;3.55;0.95;;;;;;;10.21;100.00;98507.41;5032338;28;20072;-80
2022/02/06 14:45:56;;;;;;;0.10;0.10;;;;;;;9.96;100.00;98513.19;5031675;28;20060;-79
2022/02/06 14:49:06;;;;;;;0.10;0.10;;;;;;;9.37;100.00;98502.94;5032400;28;20052;-80
2022/02/06 14:52:09;;;;;;;1.33;0.95;;;;;;;8.92;100.00;98529.00;5032657;28;20052;-81
2022/02/06 14:55:13;;;;;;;0.65;0.15;;;;;;;8.70;100.00;98532.41;5024664;28;20068;-80
2022/02/06 14:58:17;;;;;;;0.52;0.32;;;;;;;8.56;100.00;98586.00;5012381;28;20049;-80
2022/02/06 15:01:20;;;;;;;0.82;0.20;;;;;;;8.37;100.00;98579.31;5031876;28;20069;-80
2022/02/06 15:04:25;;;;;;;0.95;0.43;;;;;;;8.23;100.00;98564.28;5032075;28;20080;-80
2022/02/06 15:07:29;;;;;;;1.17;0.52;;;;;;;8.18;100.00;98573.31;5030973;28;20052;-79
2022/02/06 15:10:35;;;;;;;0.10;0.10;;;;;;;8.22;100.00;98562.00;5032185;28;20048;-81
2022/02/06 15:13:38;;;;;;;0.45;0.45;;;;;;;8.27;100.00;98575.19;5031322;28;20059;-80
2022/02/06 15:16:44;;;;;;;1.38;0.20;;;;;;;8.44;100.00;98584.41;5031502;28;20057;-80
2022/02/06 15:19:48;;;;;;;0.52;0.52;;;;;;;8.56;100.00;98574.16;5031588;28;20052;-80
2022/02/06 15:22:52;;;;;;;1.77;0.70;;;;;;;8.62;100.00;98586.81;5031212;28;20052;-80
2022/02/06 15:25:56;;;;;;;0.30;0.20;;;;;;;8.64;100.00;98589.84;5028666;28;20407;-79
2022/02/06 15:28:59;;;;;;;0.13;0.13;;;;;;;8.65;100.00;98587.84;5031000;28;20072;-81
2022/02/06 15:32:03;;;;;;;3.63;0.30;;;;;;;8.86;100.00;98595.56;5030940;28;20125;-82
2022/02/06 15:35:08;;;;;;;3.17;0.35;;;;;;;9.04;100.00;98597.97;5029973;28;20057;-80
2022/02/06 15:38:12;;;;;;;0.10;0.10;;;;;;;9.17;100.00;98594.75;5031044;28;20499;-80
2022/02/06 15:41:15;;;;;;;2.80;0.10;;;;;;;9.12;100.00;98604.56;5030086;28;20053;-81
2022/02/06 15:44:19;;;;;;;2.70;1.10;;;;;;;9.29;100.00;98615.03;5030339;28;20057;-77
2022/02/06 15:47:27;;;;;;;1.02;0.77;;;;;;;9.32;100.00;98625.13;5033184;28;20498;-90
2022/02/06 15:50:31;;;;;;;4.25;0.50;;;;;;;9.30;100.00;98619.31;5029628;28;20057;-80
2022/02/06 15:53:34;;;;;;;0.95;0.47;;;;;;;9.32;100.00;98627.91;5030443;28;20057;-80
2022/02/06 15:56:38;;;;;;;7.45;1.55;;;;;;;9.37;100.00;98643.88;5031315;28;20063;-80
2022/02/06 15:59:41;;;;;;;3.60;0.55;;;;;;;9.37;100.00;98632.75;5030565;28;20053;-80
2022/02/06 16:02:46;;;;;;;2.15;0.52;;;;;;;9.34;100.00;98651.16;5030531;28;20052;-81
2022/02/06 16:05:50;;;;;;;2.83;0.40;;;;;;;9.25;100.00;98643.03;5031370;28;20076;-82
2022/02/06 16:08:53;;;;;;;0.43;0.43;;;;;;;9.26;100.00;98652.13;5030833;28;20553;-79
2022/02/06 16:11:57;;;;;;;0.10;0.10;;;;;;;9.31;100.00;98681.97;5032872;28;20423;-81
2022/02/06 16:15:02;;;;;;;1.65;0.10;;;;;;;9.26;100.00;98691.03;5033323;28;20057;-78
2022/02/06 16:18:06;;;;;;;14.45;0.75;;;;;;;9.34;100.00;98714.31;5029622;28;20052;-79
2022/02/06 16:21:09;;;;;;;1.05;0.73;;;;;;;9.29;100.00;98715.03;5030691;28;20056;-79
2022/02/06 16:24:12;;;;;;;6.82;0.45;;;;;;;9.29;100.00;98721.34;5053145;28;20056;-81
2022/02/06 16:27:16;;;;;;;3.15;0.85;;;;;;;9.19;100.00;98736.69;5031345;28;20068;-79
2022/02/06 16:30:19;;;;;;;0.75;0.57;;;;;;;9.27;100.00;98731.44;5030014;28;20506;-79
2022/02/06 16:33:23;;;;;;;0.68;0.68;;;;;;;9.26;100.00;98741.03;5030526;28;20053;-79
2022/02/06 16:36:26;;;;;;;15.50;1.65;;;;;;;9.31;100.00;98734.75;5030247;28;20052;-80
2022/02/06 16:39:30;;;;;;;23.58;1.63;;;;;;;9.29;100.00;98745.59;5028166;28;20068;-81
2022/02/06 16:42:33;;;;;;;0.80;0.40;;;;;;;9.31;100.00;98738.31;5018655;28;20052;-81
2022/02/06 16:45:36;;;;;;;0.20;0.20;;;;;;;9.28;100.00;98721.84;5030691;28;20056;-79
2022/02/06 16:48:40;;;;;;;2.80;0.35;;;;;;;9.24;100.00;98737.97;5030406;28;20056;-77
2022/02/06 16:51:43;;;;;;;0.50;0.38;;;;;;;9.21;100.00;98763.94;5012419;28;20441;-81
2022/02/06 16:54:47;;;;;;;0.82;0.45;;;;;;;9.15;100.00;98770.25;5032322;28;20064;-79
2022/02/06 16:57:51;;;;;;;2.15;0.38;;;;;;;9.02;100.00;98761.53;5034264;28;20407;-76
2022/02/06 17:00:54;;;;;;;0.20;0.10;;;;;;;8.97;100.00;98765.03;5033869;28;20542;-76